createdAt,value
2023-05-20T00:00:03.338Z,100703.22
2023-05-20T00:02:32.042Z,100701.44
2023-05-20T00:05:03.397Z,100697.00
2023-05-20T00:07:30.126Z,100697.72
2023-05-20T00:09:59.816Z,100693.31
2023-05-20T00:12:26.641Z,100694.25
2023-05-20T00:14:55.924Z,100689.00
2023-05-20T00:17:26.650Z,100694.28
2023-05-20T00:19:53.353Z,100690.56
2023-05-20T00:22:20.086Z,100687.84
2023-05-20T00:24:49.080Z,100684.31
2023-05-20T00:27:18.225Z,100675.59
2023-05-20T00:29:48.165Z,100674.66
2023-05-20T00:32:17.398Z,100673.72
2023-05-20T00:34:44.533Z,100677.16
2023-05-20T00:37:11.177Z,100682.13
2023-05-20T00:39:37.832Z,100682.06
2023-05-20T00:42:04.848Z,100683.75
2023-05-20T00:44:33.961Z,100684.47
2023-05-20T00:47:03.577Z,100690.44
2023-05-20T00:49:33.509Z,100680.78
2023-05-20T00:52:00.145Z,100675.53
2023-05-20T00:54:26.798Z,100672.97
2023-05-20T00:56:53.494Z,100677.47
2023-05-20T00:59:20.563Z,100666.25
2023-05-20T01:01:47.270Z,100674.16
2023-05-20T01:04:14.004Z,100671.59
2023-05-20T01:06:51.003Z,100672.53
2023-05-20T01:09:17.694Z,100672.66
2023-05-20T01:11:53.020Z,100677.06
2023-05-20T01:14:19.826Z,100675.31
2023-05-20T01:16:50.319Z,100684.09
2023-05-20T01:19:44.117Z,100674.59
2023-05-20T01:22:13.719Z,100677.28
2023-05-20T01:24:44.320Z,100679.94
2023-05-20T01:27:11.756Z,100688.63
2023-05-20T01:29:44.112Z,100684.28
2023-05-20T01:32:11.591Z,100680.78
2023-05-20T01:34:39.514Z,100693.91
2023-05-20T01:37:06.372Z,100688.72
2023-05-20T01:39:33.836Z,100694.00
2023-05-20T01:42:00.902Z,100693.16
2023-05-20T01:44:27.835Z,100697.41
2023-05-20T01:46:54.612Z,100696.47
2023-05-20T01:49:21.739Z,100704.28
2023-05-20T01:51:48.461Z,100695.66
2023-05-20T01:54:15.093Z,100701.66
2023-05-20T01:56:44.196Z,100700.94
2023-05-20T01:59:13.215Z,100693.84
2023-05-20T02:01:39.883Z,100694.72
2023-05-20T02:04:06.605Z,100693.84
2023-05-20T02:06:36.158Z,100692.09
2023-05-20T02:09:05.398Z,100687.75
2023-05-20T02:11:37.489Z,100696.47
2023-05-20T02:14:04.173Z,100698.38
2023-05-20T02:16:30.970Z,100697.50
2023-05-20T02:18:58.692Z,100697.50
2023-05-20T02:21:25.974Z,100693.13
2023-05-20T02:23:53.797Z,100693.03
2023-05-20T02:26:20.820Z,100698.16
2023-05-20T02:28:50.747Z,100697.28
2023-05-20T02:31:17.944Z,100704.22
2023-05-20T02:33:47.934Z,100699.81
2023-05-20T02:36:17.338Z,100704.13
2023-05-20T02:38:45.090Z,100698.88
2023-05-20T02:41:11.817Z,100702.34
2023-05-20T02:43:41.196Z,100704.09
2023-05-20T02:46:10.019Z,100711.06
2023-05-20T02:48:39.948Z,100709.25
2023-05-20T02:51:07.098Z,100707.25
2023-05-20T02:53:33.811Z,100704.47
2023-05-20T02:56:01.749Z,100709.75
2023-05-20T02:58:36.456Z,100708.94
2023-05-20T03:01:07.259Z,100713.28
2023-05-20T03:03:33.989Z,100702.84
2023-05-20T03:06:00.944Z,100708.75
2023-05-20T03:08:27.667Z,100712.19
2023-05-20T03:10:56.941Z,100711.25
2023-05-20T03:13:23.854Z,100714.72
2023-05-20T03:15:53.389Z,100712.94
2023-05-20T03:18:28.044Z,100720.84
2023-05-20T03:20:57.536Z,100713.00
2023-05-20T03:23:24.267Z,100723.47
2023-05-20T03:25:51.210Z,100715.38
2023-05-20T03:28:18.010Z,100723.22
2023-05-20T03:30:44.750Z,100727.69
2023-05-20T03:33:14.626Z,100725.22
2023-05-20T03:35:41.290Z,100727.91
2023-05-20T03:38:07.882Z,100728.00
2023-05-20T03:40:37.174Z,100724.63
2023-05-20T03:43:05.385Z,100727.38
2023-05-20T03:45:34.325Z,100730.03
2023-05-20T03:48:07.122Z,100726.53
2023-05-20T03:50:40.922Z,100726.50
2023-05-20T03:53:07.866Z,100727.31
2023-05-20T03:55:39.606Z,100729.19
2023-05-20T03:58:06.963Z,100732.78
2023-05-20T04:00:36.372Z,100735.34
2023-05-20T04:03:03.370Z,100743.91
2023-05-20T04:05:30.320Z,100746.38
2023-05-20T04:08:01.229Z,100746.38
2023-05-20T04:10:27.917Z,100751.50
2023-05-20T04:12:57.027Z,100750.59
2023-05-20T04:15:26.584Z,100752.03
2023-05-20T04:17:55.898Z,100752.78
2023-05-20T04:20:25.639Z,100759.69
2023-05-20T04:22:55.453Z,100761.56
2023-05-20T04:25:22.337Z,100759.03
2023-05-20T04:27:49.856Z,100769.66
2023-05-20T04:30:21.824Z,100760.19
2023-05-20T04:32:51.186Z,100767.03
2023-05-20T04:35:18.426Z,100760.00
2023-05-20T04:37:49.517Z,100759.03
2023-05-20T04:40:17.164Z,100767.03
2023-05-20T04:42:45.026Z,100769.69
2023-05-20T04:45:12.725Z,100771.53
2023-05-20T04:47:42.636Z,100764.63
2023-05-20T04:50:12.379Z,100761.28
2023-05-20T04:52:43.840Z,100753.53
2023-05-20T04:55:16.304Z,100761.44
2023-05-20T04:57:45.552Z,100759.69
2023-05-20T05:00:13.445Z,100767.56
2023-05-20T05:02:43.797Z,100759.88
2023-05-20T05:05:10.564Z,100766.88
2023-05-20T05:07:38.281Z,100766.94
2023-05-20T05:10:08.204Z,100766.16
2023-05-20T05:12:35.106Z,100765.47
2023-05-20T05:15:03.485Z,100752.63
2023-05-20T05:17:30.331Z,100757.88
2023-05-20T05:20:00.452Z,100754.53
2023-05-20T05:22:31.556Z,100754.63
2023-05-20T05:24:59.043Z,100758.22
2023-05-20T05:27:30.567Z,100756.59
2023-05-20T05:30:00.175Z,100763.63
2023-05-20T05:32:44.403Z,100763.69
2023-05-20T05:35:11.454Z,100767.22
2023-05-20T05:37:39.195Z,100759.34
2023-05-20T05:40:11.510Z,100755.09
2023-05-20T05:42:41.253Z,100757.91
2023-05-20T05:45:14.591Z,100766.69
2023-05-20T05:47:47.229Z,100771.09
2023-05-20T05:50:14.468Z,100766.91
2023-05-20T05:52:41.483Z,100763.56
2023-05-20T05:55:10.681Z,100768.94
2023-05-20T05:57:40.459Z,100768.06
2023-05-20T06:00:11.453Z,100769.84
2023-05-20T06:02:49.798Z,100772.47
2023-05-20T06:05:34.291Z,100776.97
2023-05-20T06:08:07.083Z,100771.84
2023-05-20T06:10:36.889Z,100771.00
2023-05-20T06:13:05.965Z,100769.31
2023-05-20T06:15:36.419Z,100773.81
2023-05-20T06:18:08.131Z,100766.88
2023-05-20T06:20:37.449Z,100766.06
2023-05-20T06:23:04.176Z,100771.41
2023-05-20T06:25:39.551Z,100774.97
2023-05-20T06:28:06.877Z,100772.41
2023-05-20T06:30:35.691Z,100765.44
2023-05-20T06:33:02.959Z,100772.50
2023-05-20T06:35:30.859Z,100771.72
2023-05-20T06:38:01.270Z,100771.78
2023-05-20T06:40:28.391Z,100766.56
2023-05-20T06:42:55.090Z,100762.25
2023-05-20T06:45:42.208Z,100757.09
2023-05-20T06:48:26.946Z,100753.59
2023-05-20T06:50:54.255Z,100748.38
2023-05-20T06:53:21.673Z,100756.34
2023-05-20T06:55:48.430Z,100752.00
2023-05-20T06:58:18.050Z,100756.41
2023-05-20T07:00:44.766Z,100749.44
2023-05-20T07:03:11.788Z,100750.31
2023-05-20T07:05:40.673Z,100745.09
2023-05-20T07:08:11.441Z,100744.31
2023-05-20T07:10:38.706Z,100753.13
2023-05-20T07:13:07.982Z,100754.03
2023-05-20T07:15:34.946Z,100752.34
2023-05-20T07:18:02.261Z,100736.56
2023-05-20T07:20:32.303Z,100733.06
2023-05-20T07:23:05.995Z,100733.94
2023-05-20T07:25:42.202Z,100723.41
2023-05-20T07:28:09.009Z,100726.97
2023-05-20T07:30:35.852Z,100724.34
2023-05-20T07:33:19.264Z,100721.72
2023-05-20T07:35:49.428Z,100725.22
2023-05-20T07:38:19.738Z,100721.66
2023-05-20T07:40:51.633Z,100725.19
2023-05-20T07:43:23.429Z,100725.16
2023-05-20T07:45:51.179Z,100737.44
2023-05-20T07:48:19.962Z,100736.53
2023-05-20T07:50:53.596Z,100732.19
2023-05-20T07:53:20.983Z,100726.88
2023-05-20T07:55:48.088Z,100731.25
2023-05-20T07:58:14.885Z,100723.31
2023-05-20T08:00:41.605Z,100725.03
2023-05-20T08:03:08.911Z,100713.53
2023-05-20T08:05:46.730Z,100715.25
2023-05-20T08:08:16.268Z,100712.53
2023-05-20T08:10:54.655Z,100714.22
2023-05-20T08:13:24.954Z,100718.63
2023-05-20T08:15:58.215Z,100719.47
2023-05-20T08:18:29.150Z,100717.69
2023-05-20T08:21:01.343Z,100717.63
2023-05-20T08:23:28.100Z,100720.19
2023-05-20T08:25:54.944Z,100714.84
2023-05-20T08:28:23.855Z,100713.06
2023-05-20T08:30:52.200Z,100701.56
2023-05-20T08:33:22.584Z,100704.16
2023-05-20T08:35:49.427Z,100695.22
2023-05-20T08:38:16.251Z,100695.13
2023-05-20T08:40:45.284Z,100695.94
2023-05-20T08:43:30.756Z,100702.88
2023-05-20T08:46:08.924Z,100690.38
2023-05-20T08:48:41.139Z,100686.72
2023-05-20T08:51:12.902Z,100678.75
2023-05-20T08:53:39.932Z,100687.50
2023-05-20T08:56:06.821Z,100681.22
2023-05-20T08:58:33.664Z,100680.28
2023-05-20T09:01:01.460Z,100675.81
2023-05-20T09:03:28.208Z,100681.03
2023-05-20T09:06:07.001Z,100680.97
2023-05-20T09:08:36.042Z,100674.63
2023-05-20T09:11:02.826Z,100670.91
2023-05-20T09:13:30.985Z,100669.88
2023-05-20T09:16:01.230Z,100676.66
2023-05-20T09:18:28.004Z,100671.22
2023-05-20T09:20:55.061Z,100667.53
2023-05-20T09:23:30.890Z,100662.91
2023-05-20T09:26:00.375Z,100665.44
2023-05-20T09:28:30.311Z,100662.69
2023-05-20T09:31:02.437Z,100658.97
2023-05-20T09:33:36.915Z,100659.72
2023-05-20T09:36:04.628Z,100654.22
2023-05-20T09:38:38.286Z,100646.84
2023-05-20T09:41:11.235Z,100651.13
2023-05-20T09:43:43.503Z,100641.94
2023-05-20T09:46:10.214Z,100633.75
2023-05-20T09:48:37.610Z,100632.53
2023-05-20T09:51:07.375Z,100624.25
2023-05-20T09:53:39.448Z,100621.31
2023-05-20T09:56:06.221Z,100615.53
2023-05-20T09:58:36.381Z,100622.22
2023-05-20T10:01:06.651Z,100624.81
2023-05-20T10:03:36.232Z,100617.47
2023-05-20T10:06:06.696Z,100609.25
2023-05-20T10:08:40.053Z,100617.78
2023-05-20T10:11:21.509Z,100605.72
2023-05-20T10:14:00.711Z,100600.97
2023-05-20T10:16:30.801Z,100603.06
2023-05-20T10:18:59.832Z,100599.97
2023-05-20T10:21:28.923Z,100596.72
2023-05-20T10:24:05.765Z,100590.09
2023-05-20T10:26:44.251Z,100597.63
2023-05-20T10:29:41.433Z,100602.34
2023-05-20T10:35:53.501Z,100583.91
2023-05-20T10:38:24.131Z,100577.31
2023-05-20T10:41:26.781Z,100574.63
2023-05-20T10:44:01.486Z,100565.78
2023-05-20T10:46:38.023Z,100570.28
2023-05-20T10:49:19.611Z,100572.16
2023-05-20T10:51:50.599Z,100563.91
2023-05-20T10:54:31.509Z,100567.78
2023-05-20T10:57:12.173Z,100565.25
2023-05-20T11:00:24.986Z,100558.72
2023-05-20T11:04:13.710Z,100555.41
2023-05-20T11:06:18.565Z,100553.50
2023-05-20T11:09:04.084Z,100560.31
2023-05-20T11:11:42.355Z,100549.22
2023-05-20T11:15:27.128Z,100554.63
2023-05-20T11:18:50.689Z,100549.13
2023-05-20T11:22:24.827Z,100550.09
2023-05-20T11:25:08.733Z,100544.06
2023-05-20T11:28:16.725Z,100539.84
2023-05-20T11:34:44.445Z,100550.81
2023-05-20T11:37:01.875Z,100544.44
2023-05-20T11:37:41.298Z,100542.91
2023-05-20T11:40:54.082Z,100535.09
2023-05-20T11:43:29.353Z,100535.88
2023-05-20T11:46:13.248Z,100538.09
2023-05-20T11:49:03.335Z,100545.94
2023-05-20T11:51:44.312Z,100538.38
2023-05-20T11:54:15.935Z,100537.44
2023-05-20T11:56:47.655Z,100537.47
2023-05-20T11:59:14.906Z,100532.75
2023-05-20T12:01:41.790Z,100539.94
2023-05-20T12:04:13.465Z,100530.41
2023-05-20T12:06:56.223Z,100528.47
2023-05-20T12:09:27.818Z,100528.38
2023-05-20T12:12:38.042Z,100521.31
2023-05-20T12:15:33.504Z,100521.66
2023-05-20T12:18:34.398Z,100524.88
2023-05-20T12:21:09.083Z,100522.53
2023-05-20T12:23:41.092Z,100517.06
2023-05-20T12:26:18.047Z,100518.75
2023-05-20T12:33:14.784Z,100512.09
2023-05-20T12:46:07.931Z,100504.28
2023-05-20T12:50:19.016Z,100514.59
2023-05-20T12:53:19.144Z,100510.41
2023-05-20T12:55:47.468Z,100499.06
2023-05-20T12:58:24.018Z,100506.44
2023-05-20T13:01:05.681Z,100494.91
2023-05-20T13:04:04.703Z,100493.47
2023-05-20T13:07:09.045Z,100492.28
2023-05-20T13:09:40.810Z,100489.25
2023-05-20T13:12:35.622Z,100491.25
2023-05-20T13:18:03.715Z,100483.81
2023-05-20T13:18:06.146Z,100485.59
2023-05-20T13:20:31.341Z,100479.47
2023-05-20T13:23:34.143Z,100472.16
2023-05-20T13:26:28.163Z,100466.28
2023-05-20T13:29:00.141Z,100471.16
2023-05-20T13:31:34.365Z,100463.69
2023-05-20T13:34:08.851Z,100468.41
2023-05-20T13:36:53.713Z,100463.56
2023-05-20T13:39:28.437Z,100466.84
2023-05-20T13:42:38.967Z,100460.84
2023-05-20T13:46:20.021Z,100463.25
2023-05-20T13:48:41.894Z,100473.19
2023-05-20T13:51:12.332Z,100452.59
2023-05-20T13:53:41.735Z,100458.56
2023-05-20T13:56:12.954Z,100458.06
2023-05-20T13:58:39.829Z,100456.00
2023-05-20T14:01:06.986Z,100451.38
2023-05-20T14:03:37.539Z,100446.44
2023-05-20T14:09:03.064Z,100448.91
2023-05-20T14:09:53.022Z,100449.91
2023-05-20T14:12:52.280Z,100448.53
2023-05-20T14:15:21.517Z,100450.53
2023-05-20T14:18:46.636Z,100457.75
2023-05-20T14:21:35.307Z,100441.63
2023-05-20T14:23:36.094Z,100447.53
2023-05-20T14:26:14.933Z,100434.75
2023-05-20T14:28:52.919Z,100432.53
2023-05-20T14:31:29.249Z,100437.13
2023-05-20T14:34:02.667Z,100427.34
2023-05-20T14:36:39.542Z,100426.41
2023-05-20T14:39:14.057Z,100421.41
2023-05-20T14:41:54.392Z,100423.00
2023-05-20T14:44:23.549Z,100422.44
2023-05-20T14:46:50.579Z,100422.06
2023-05-20T14:49:21.949Z,100420.25
2023-05-20T14:51:49.019Z,100414.03
2023-05-20T14:54:17.184Z,100419.59
2023-05-20T14:56:44.130Z,100417.16
2023-05-20T14:59:11.053Z,100414.41
2023-05-20T15:01:37.945Z,100421.16
2023-05-20T15:04:05.258Z,100409.28
2023-05-20T15:06:33.686Z,100411.09
2023-05-20T15:09:07.366Z,100414.13
2023-05-20T15:11:48.783Z,100411.81
2023-05-20T15:14:21.805Z,100406.47
2023-05-20T15:16:53.912Z,100414.09
2023-05-20T15:19:23.884Z,100400.81
2023-05-20T15:21:56.868Z,100403.19
2023-05-20T15:24:28.777Z,100399.22
2023-05-20T15:27:05.707Z,100390.28
2023-05-20T15:29:40.974Z,100386.16
2023-05-20T15:32:10.346Z,100391.22
2023-05-20T15:34:41.710Z,100394.44
2023-05-20T15:37:11.181Z,100390.47
2023-05-20T15:39:38.760Z,100389.09
2023-05-20T15:42:08.201Z,100389.41
2023-05-20T15:44:40.492Z,100379.47
2023-05-20T15:47:09.941Z,100371.84
2023-05-20T15:49:59.548Z,100384.00
2023-05-20T15:52:28.662Z,100373.56
2023-05-20T15:55:02.392Z,100375.22
2023-05-20T15:57:37.564Z,100371.25
2023-05-20T16:00:09.567Z,100378.22
2023-05-20T16:02:53.195Z,100371.63
2023-05-20T16:05:36.602Z,100369.66
2023-05-20T16:24:28.521Z,100382.06
2023-05-20T16:25:39.413Z,100371.13
2023-05-20T16:29:07.649Z,100364.06
2023-05-20T16:36:02.747Z,100369.63
2023-05-20T16:38:41.660Z,100364.34
2023-05-20T16:41:28.186Z,100371.91
2023-05-20T16:44:02.380Z,100364.41
2023-05-20T16:46:42.514Z,100373.09
2023-05-20T16:49:09.526Z,100374.50
2023-05-20T16:51:36.737Z,100375.84
2023-05-20T16:54:04.085Z,100382.59
2023-05-20T16:56:42.396Z,100377.16
2023-05-20T16:59:17.751Z,100384.13
2023-05-20T17:01:52.283Z,100378.94
2023-05-20T17:04:24.982Z,100386.66
2023-05-20T17:06:56.966Z,100379.31
2023-05-20T17:09:25.378Z,100377.19
2023-05-20T17:11:58.690Z,100386.03
2023-05-20T17:14:35.193Z,100379.41
2023-05-20T17:17:10.636Z,100372.84
2023-05-20T17:19:42.175Z,100385.03
2023-05-20T17:22:08.967Z,100383.03
2023-05-20T17:24:38.807Z,100394.06
2023-05-20T17:27:11.253Z,100386.44
2023-05-20T17:29:58.037Z,100390.72
2023-05-20T17:32:25.004Z,100387.59
2023-05-20T17:35:08.696Z,100393.44
2023-05-20T17:37:38.179Z,100395.53
2023-05-20T17:40:16.320Z,100394.03
2023-05-20T17:45:28.609Z,100391.84
2023-05-20T17:47:55.896Z,100382.41
2023-05-20T17:50:28.730Z,100388.06
2023-05-20T17:52:55.938Z,100388.38
2023-05-20T17:55:22.984Z,100386.00
2023-05-20T17:57:54.243Z,100390.72
2023-05-20T18:00:26.237Z,100389.19
2023-05-20T18:03:00.943Z,100388.59
2023-05-20T18:05:35.604Z,100396.81
2023-05-20T18:08:14.170Z,100390.84
2023-05-20T18:10:51.352Z,100386.59
2023-05-20T18:13:27.543Z,100387.78
2023-05-20T18:15:58.181Z,100401.16
2023-05-20T18:18:25.402Z,100386.31
2023-05-20T18:20:52.900Z,100397.06
2023-05-20T18:23:27.739Z,100395.53
2023-05-20T18:25:54.757Z,100390.31
2023-05-20T18:28:26.911Z,100396.66
2023-05-20T18:30:55.787Z,100387.97
2023-05-20T18:33:24.769Z,100394.38
2023-05-20T18:35:57.211Z,100395.34
2023-05-20T18:38:24.249Z,100405.22
2023-05-20T18:41:01.734Z,100394.75
2023-05-20T18:54:01.738Z,100408.75
2023-05-20T18:56:32.612Z,100410.75
2023-05-20T18:59:00.007Z,100406.41
2023-05-20T19:01:27.595Z,100406.50
2023-05-20T19:03:54.704Z,100410.28
2023-05-20T19:06:23.805Z,100415.81
2023-05-20T19:08:50.995Z,100411.56
2023-05-20T19:11:21.673Z,100419.63
2023-05-20T19:13:48.624Z,100420.63
2023-05-20T19:16:16.181Z,100421.56
2023-05-20T19:18:45.792Z,100419.88
2023-05-20T19:21:12.922Z,100417.34
2023-05-20T19:23:39.894Z,100420.09
2023-05-20T19:26:15.566Z,100431.53
2023-05-20T19:28:45.262Z,100433.41
2023-05-20T19:31:12.476Z,100442.44
2023-05-20T19:33:44.093Z,100441.69
2023-05-20T19:36:15.644Z,100429.41
2023-05-20T19:38:43.480Z,100425.97
2023-05-20T19:41:13.626Z,100426.94
2023-05-20T19:43:45.889Z,100427.84
2023-05-20T19:46:13.284Z,100434.91
2023-05-20T19:48:40.477Z,100434.06
2023-05-20T19:51:09.859Z,100435.81
2023-05-20T19:53:41.157Z,100434.03
2023-05-20T19:56:10.764Z,100429.59
2023-05-20T19:58:43.364Z,100429.69
2023-05-20T20:01:11.063Z,100428.00
2023-05-20T20:03:38.290Z,100426.38
2023-05-20T20:06:05.243Z,100433.38
2023-05-20T20:08:32.047Z,100438.66
2023-05-20T20:10:58.869Z,100439.56
2023-05-20T20:13:25.802Z,100433.50
2023-05-20T20:15:53.258Z,100438.84
2023-05-20T20:18:20.001Z,100439.00
2023-05-20T20:20:47.156Z,100439.06
2023-05-20T20:23:13.813Z,100441.75
2023-05-20T20:25:41.212Z,100433.03
2023-05-20T20:28:11.177Z,100430.44
2023-05-20T20:30:38.402Z,100430.50
2023-05-20T20:33:07.536Z,100431.34
2023-05-20T20:35:34.878Z,100428.72
2023-05-20T20:38:08.360Z,100425.22
2023-05-20T20:40:39.421Z,100426.13
2023-05-20T20:43:06.954Z,100429.66
2023-05-20T20:45:42.708Z,100421.78
2023-05-20T20:48:09.759Z,100426.16
2023-05-20T20:50:36.641Z,100432.38
2023-05-20T20:53:03.264Z,100420.06
2023-05-20T20:55:30.688Z,100420.09
2023-05-20T20:57:57.865Z,100416.59
2023-05-20T21:00:27.510Z,100418.38
2023-05-20T21:02:56.373Z,100424.59
2023-05-20T21:05:26.755Z,100426.38
2023-05-20T21:07:58.403Z,100424.66
2023-05-20T21:10:29.639Z,100422.91
2023-05-20T21:12:57.048Z,100429.97
2023-05-20T21:15:23.987Z,100423.88
2023-05-20T21:17:50.874Z,100429.22
2023-05-20T21:20:21.507Z,100429.25
2023-05-20T21:22:50.940Z,100425.75
2023-05-20T21:25:17.645Z,100431.03
2023-05-20T21:27:46.756Z,100425.81
2023-05-20T21:30:13.647Z,100427.56
2023-05-20T21:32:40.492Z,100425.81
2023-05-20T21:35:07.545Z,100432.84
2023-05-20T21:37:34.201Z,100416.16
2023-05-20T21:40:00.930Z,100418.81
2023-05-20T21:42:29.941Z,100417.91
2023-05-20T21:44:59.284Z,100421.47
2023-05-20T21:47:28.265Z,100413.53
2023-05-20T21:49:57.431Z,100410.06
2023-05-20T21:52:24.069Z,100417.97
2023-05-20T21:54:50.757Z,100410.13
2023-05-20T21:57:19.791Z,100409.28
2023-05-20T21:59:48.987Z,100413.66
2023-05-20T22:02:16.000Z,100406.63
2023-05-20T22:04:43.616Z,100419.81
2023-05-20T22:07:10.974Z,100418.06
2023-05-20T22:09:37.692Z,100418.94
2023-05-20T22:12:04.869Z,100414.56
2023-05-20T22:14:34.066Z,100416.31
2023-05-20T22:17:01.161Z,100411.94
2023-05-20T22:19:28.221Z,100415.47
2023-05-20T22:21:57.374Z,100411.09
2023-05-20T22:24:24.025Z,100415.47
2023-05-20T22:26:50.980Z,100413.72
2023-05-20T22:29:17.565Z,100417.25
2023-05-20T22:31:44.204Z,100421.63
2023-05-20T22:34:13.230Z,100432.13
2023-05-20T22:36:40.093Z,100431.25
2023-05-20T22:39:09.132Z,100434.78
2023-05-20T22:41:38.197Z,100429.50
2023-05-20T22:44:05.036Z,100426.88
2023-05-20T22:46:32.237Z,100440.00
2023-05-20T22:48:59.235Z,100430.34
2023-05-20T22:51:28.299Z,100429.47
2023-05-20T22:53:55.999Z,100427.75
2023-05-20T22:56:23.773Z,100427.72
2023-05-20T22:58:50.617Z,100428.59
2023-05-20T23:01:24.643Z,100440.88
2023-05-20T23:03:53.552Z,100436.50
2023-05-20T23:06:22.756Z,100432.13
2023-05-20T23:08:49.632Z,100436.50
2023-05-20T23:11:18.521Z,100441.78
2023-05-20T23:13:47.522Z,100425.09
2023-05-20T23:16:16.501Z,100436.50
2023-05-20T23:18:46.491Z,100426.84
2023-05-20T23:21:14.453Z,100432.09
2023-05-20T23:23:41.650Z,100435.63
2023-05-20T23:26:08.500Z,100432.13
2023-05-20T23:28:35.182Z,100436.50
2023-05-20T23:31:01.999Z,100433.88
2023-05-20T23:33:29.568Z,100442.66
2023-05-20T23:35:56.488Z,100433.88
2023-05-20T23:38:25.752Z,100434.72
2023-05-20T23:40:55.141Z,100434.75
2023-05-20T23:43:24.821Z,100433.88
2023-05-20T23:45:51.416Z,100429.50
2023-05-20T23:48:20.736Z,100429.47
2023-05-20T23:50:50.489Z,100432.09
2023-05-20T23:53:17.571Z,100415.47
2023-05-20T23:55:49.499Z,100409.34
2023-05-20T23:58:19.342Z,100416.34
